Terminal Aerodrome Forecast
Issued by NWS Nashville, TN

Home | Current Version | Previous Version | Text Only | Print | Product List | Glossary On
Versions: 1 2 3 4 5 6 7 8 9 10 11 12 13 14 15 16 17 18 19 20 21 22 23 24 25 26 27 28 29 30 31 32 33 34 35 36 37
000
FTUS44 KOHX 042058 AAE
TAFBNA
TAF AMD
KBNA 042058Z 0421/0518 22006KT P6SM VCTS SCT025 BKN040CB OVC080
     FM050900 18003KT 6SM -SHRA BR OVC005
     FM051600 17005KT P6SM VCTS OVC015CB=

USA.gov is the U.S. government's official web portal to all federal, state and local government web resources and services.